createdAt,value
2022-10-18T00:00:49.715Z,69.22
2022-10-18T00:01:49.804Z,69.22
2022-10-18T00:02:49.696Z,69.22
2022-10-18T00:03:49.683Z,69.22
2022-10-18T00:04:49.675Z,69.22
2022-10-18T00:05:49.661Z,69.22
2022-10-18T00:06:49.674Z,69.22
2022-10-18T00:07:49.667Z,69.22
2022-10-18T00:08:49.653Z,69.22
2022-10-18T00:09:49.619Z,69.22
2022-10-18T00:10:49.611Z,69.22
2022-10-18T00:11:49.598Z,69.22
2022-10-18T00:12:49.589Z,69.22
2022-10-18T00:13:49.616Z,69.22
2022-10-18T00:14:49.568Z,69.22
2022-10-18T00:15:49.579Z,69.22
2022-10-18T00:16:49.549Z,69.22
2022-10-18T00:17:49.549Z,69.22
2022-10-18T00:18:49.526Z,69.22
2022-10-18T00:19:49.536Z,69.22
2022-10-18T00:20:49.504Z,69.22
2022-10-18T00:21:49.514Z,69.22
2022-10-18T00:22:49.485Z,69.22
2022-10-18T00:23:49.471Z,69.22
2022-10-18T00:24:49.464Z,69.22
2022-10-18T00:25:49.450Z,69.22
2022-10-18T00:26:49.468Z,69.22
2022-10-18T00:27:49.430Z,69.22
2022-10-18T00:28:49.472Z,69.22
2022-10-18T00:29:49.409Z,69.22
2022-10-18T00:31:49.434Z,69.22
2022-10-18T00:32:49.399Z,69.22
2022-10-18T00:33:49.365Z,69.22
2022-10-18T00:34:49.356Z,69.22
2022-10-18T00:35:49.344Z,69.22
2022-10-18T00:36:49.336Z,69.22
2022-10-18T00:37:49.345Z,69.22
2022-10-18T00:38:49.315Z,69.22
2022-10-18T00:39:49.362Z,69.22
2022-10-18T00:40:49.293Z,69.22
2022-10-18T00:41:49.302Z,69.22
2022-10-18T00:42:49.270Z,69.22
2022-10-18T00:43:49.296Z,69.22
2022-10-18T00:44:49.249Z,69.22
2022-10-18T00:45:49.237Z,69.22
2022-10-18T00:46:49.230Z,69.22
2022-10-18T00:47:49.239Z,69.22
2022-10-18T00:48:49.258Z,69.22
2022-10-18T00:49:49.225Z,69.22
2022-10-18T00:50:49.185Z,69.22
2022-10-18T00:51:49.174Z,69.22
2022-10-18T00:52:49.186Z,69.22
2022-10-18T00:53:49.153Z,69.22
2022-10-18T00:54:49.146Z,69.22
2022-10-18T00:55:49.169Z,69.22
2022-10-18T00:56:49.126Z,69.22
2022-10-18T00:57:49.211Z,69.22
2022-10-18T00:58:49.101Z,69.22
2022-10-18T00:59:49.090Z,69.22
2022-10-18T01:00:49.082Z,69.22
2022-10-18T01:01:49.200Z,69.22
2022-10-18T01:02:49.059Z,69.22
2022-10-18T01:03:49.073Z,69.22
2022-10-18T01:04:49.047Z,69.22
2022-10-18T01:05:49.074Z,69.22
2022-10-18T01:06:49.078Z,69.22
2022-10-18T01:07:49.043Z,69.22
2022-10-18T01:08:49.018Z,69.22
2022-10-18T01:09:48.985Z,69.22
2022-10-18T01:10:48.987Z,69.22
2022-10-18T01:11:48.963Z,69.22
2022-10-18T01:12:48.981Z,69.22
2022-10-18T01:13:48.942Z,69.22
2022-10-18T01:14:48.934Z,69.22
2022-10-18T01:15:48.955Z,69.22
2022-10-18T01:16:48.911Z,69.22
2022-10-18T01:17:48.924Z,69.22
2022-10-18T01:18:48.916Z,69.22
2022-10-18T01:19:48.906Z,69.22
2022-10-18T01:20:48.869Z,69.22
2022-10-18T01:21:48.864Z,69.22
2022-10-18T01:22:48.848Z,69.22
2022-10-18T01:23:48.859Z,69.22
2022-10-18T01:24:48.914Z,69.22
2022-10-18T01:25:48.816Z,69.22
2022-10-18T01:26:48.807Z,69.22
2022-10-18T01:27:48.795Z,69.22
2022-10-18T01:28:48.898Z,69.22
2022-10-18T01:29:48.773Z,69.22
2022-10-18T01:30:48.766Z,69.22
2022-10-18T01:31:48.752Z,69.22
2022-10-18T01:32:48.746Z,69.22
2022-10-18T01:33:48.768Z,69.22
2022-10-18T01:34:48.746Z,69.22
2022-10-18T01:35:48.754Z,69.22
2022-10-18T01:36:48.701Z,69.22
2022-10-18T01:37:48.688Z,69.22
2022-10-18T01:38:48.679Z,69.22
2022-10-18T01:39:48.667Z,69.22
2022-10-18T01:40:48.692Z,69.22
2022-10-18T01:41:48.647Z,69.22
2022-10-18T01:42:48.637Z,69.22
2022-10-18T01:43:48.625Z,69.22
2022-10-18T01:44:48.617Z,69.22
2022-10-18T01:45:48.606Z,69.22
2022-10-18T01:46:48.616Z,69.22
2022-10-18T01:47:48.590Z,69.22
2022-10-18T01:48:48.579Z,69.22
2022-10-18T01:49:48.564Z,69.22
2022-10-18T01:50:48.554Z,69.22
2022-10-18T01:51:48.589Z,69.22
2022-10-18T01:52:48.531Z,69.22
2022-10-18T01:53:48.520Z,69.22
2022-10-18T01:54:48.509Z,69.22
2022-10-18T01:55:48.499Z,69.22
2022-10-18T01:56:48.513Z,69.22
2022-10-18T01:57:48.477Z,69.22
2022-10-18T01:58:48.470Z,69.22
2022-10-18T01:59:48.457Z,69.22
2022-10-18T02:00:48.467Z,69.22
2022-10-18T02:01:48.435Z,69.22
2022-10-18T02:02:48.429Z,69.22
2022-10-18T02:03:48.434Z,69.22
2022-10-18T02:04:48.404Z,69.22
2022-10-18T02:05:48.393Z,69.22
2022-10-18T02:06:48.393Z,69.22
2022-10-18T02:07:55.319Z,69.22
2022-10-18T02:08:49.383Z,69.22
2022-10-18T02:09:48.350Z,69.22
2022-10-18T02:10:48.345Z,69.22
2022-10-18T02:11:48.341Z,69.22
2022-10-18T02:12:48.321Z,69.22
2022-10-18T02:13:48.332Z,69.22
2022-10-18T02:14:48.299Z,69.22
2022-10-18T02:15:48.288Z,69.22
2022-10-18T02:16:48.302Z,69.22
2022-10-18T02:17:48.266Z,69.22
2022-10-18T02:18:48.259Z,69.22
2022-10-18T02:19:48.246Z,69.22
2022-10-18T02:20:48.238Z,69.22
2022-10-18T02:21:48.252Z,69.22
2022-10-18T02:22:48.217Z,69.22
2022-10-18T02:23:48.226Z,69.22
2022-10-18T02:24:48.193Z,69.22
2022-10-18T02:25:48.203Z,69.22
2022-10-18T02:26:48.192Z,69.22
2022-10-18T02:27:48.161Z,69.22
2022-10-18T02:28:48.151Z,69.22
2022-10-18T02:29:48.139Z,69.22
2022-10-18T02:30:48.132Z,69.22
2022-10-18T02:31:48.140Z,69.22
2022-10-18T02:32:48.112Z,69.22
2022-10-18T02:33:48.098Z,69.22
2022-10-18T02:34:48.089Z,69.22
2022-10-18T02:35:48.087Z,69.22
2022-10-18T02:36:48.071Z,69.22
2022-10-18T02:37:48.079Z,69.22
2022-10-18T02:38:48.047Z,69.22
2022-10-18T02:39:48.080Z,69.22
2022-10-18T02:40:48.024Z,69.22
2022-10-18T02:41:48.015Z,69.22
2022-10-18T02:42:48.005Z,69.22
2022-10-18T02:43:47.993Z,69.22
2022-10-18T02:44:48.005Z,69.22
2022-10-18T02:45:47.970Z,69.22
2022-10-18T02:46:47.963Z,69.22
2022-10-18T02:47:47.951Z,69.22
2022-10-18T02:48:47.942Z,69.22
2022-10-18T02:49:47.950Z,69.22
2022-10-18T02:50:47.918Z,69.22
2022-10-18T02:51:47.907Z,69.22
2022-10-18T02:52:47.897Z,69.22
2022-10-18T02:53:47.915Z,69.22
2022-10-18T02:54:47.878Z,69.22
2022-10-18T02:55:47.892Z,69.22
2022-10-18T02:56:47.854Z,69.22
2022-10-18T02:57:47.843Z,69.22
2022-10-18T02:58:47.859Z,69.22
2022-10-18T02:59:47.845Z,69.22
2022-10-18T03:00:47.816Z,69.22
2022-10-18T03:01:47.855Z,69.22
2022-10-18T03:02:47.795Z,69.22
2022-10-18T03:03:47.781Z,69.22
2022-10-18T03:04:47.793Z,69.22
2022-10-18T03:05:47.759Z,69.22
2022-10-18T03:06:47.752Z,69.22
2022-10-18T03:07:47.737Z,69.22
2022-10-18T03:08:47.728Z,69.22
2022-10-18T03:09:47.743Z,69.22
2022-10-18T03:10:47.707Z,69.22
2022-10-18T03:11:47.745Z,69.22
2022-10-18T03:12:47.688Z,69.22
2022-10-18T03:13:47.756Z,69.22
2022-10-18T03:14:47.667Z,69.22
2022-10-18T03:15:47.654Z,69.22
2022-10-18T03:16:47.668Z,69.22
2022-10-18T03:17:47.632Z,69.22
2022-10-18T03:18:47.628Z,69.22
2022-10-18T03:19:47.651Z,69.22
2022-10-18T03:20:47.601Z,69.22
2022-10-18T03:21:47.593Z,69.22
2022-10-18T03:22:47.582Z,69.22
2022-10-18T03:23:47.570Z,69.22
2022-10-18T03:24:47.562Z,69.22
2022-10-18T03:25:47.577Z,69.22
2022-10-18T03:26:47.537Z,69.22
2022-10-18T03:27:47.557Z,69.22
2022-10-18T03:28:47.627Z,69.22
2022-10-18T03:29:47.506Z,69.22
2022-10-18T03:30:47.525Z,69.22
2022-10-18T03:31:47.514Z,69.22
2022-10-18T03:32:47.477Z,69.22
2022-10-18T03:33:47.466Z,69.22
2022-10-18T03:34:47.454Z,69.22
2022-10-18T03:35:47.484Z,69.22
2022-10-18T03:36:47.435Z,69.22
2022-10-18T03:37:47.421Z,69.22
2022-10-18T03:38:47.416Z,69.22
2022-10-18T03:39:47.401Z,69.22
2022-10-18T03:40:47.395Z,69.22
2022-10-18T03:41:47.419Z,69.22
2022-10-18T03:42:47.369Z,69.22
2022-10-18T03:43:47.385Z,69.22
2022-10-18T03:44:47.348Z,69.22
2022-10-18T03:45:47.340Z,69.22
2022-10-18T03:46:47.326Z,69.22
2022-10-18T03:47:47.344Z,69.22
2022-10-18T03:48:47.305Z,69.22
2022-10-18T03:49:47.298Z,69.22
2022-10-18T03:50:47.285Z,69.22
2022-10-18T03:51:47.279Z,69.22
2022-10-18T03:52:47.289Z,69.22
2022-10-18T03:53:47.255Z,69.22
2022-10-18T03:54:47.243Z,69.22
2022-10-18T03:55:47.232Z,69.22
2022-10-18T03:56:47.220Z,69.22
2022-10-18T03:57:47.237Z,69.22
2022-10-18T03:58:47.202Z,69.22
2022-10-18T03:59:47.216Z,69.22
2022-10-18T04:00:47.186Z,69.22
2022-10-18T04:01:47.231Z,69.22
2022-10-18T04:02:50.705Z,69.22
2022-10-18T04:03:48.147Z,69.22
2022-10-18T04:04:47.137Z,69.22
2022-10-18T04:05:47.129Z,69.22
2022-10-18T04:06:47.116Z,69.22
2022-10-18T04:07:47.109Z,69.22
2022-10-18T04:08:47.120Z,69.22
2022-10-18T04:09:47.084Z,69.22
2022-10-18T04:10:47.075Z,69.22
2022-10-18T04:11:47.068Z,69.22
2022-10-18T04:12:47.051Z,69.22
2022-10-18T04:13:47.070Z,69.22
2022-10-18T04:14:47.033Z,69.22
2022-10-18T04:15:47.043Z,69.22
2022-10-18T04:16:47.011Z,69.22
2022-10-18T04:17:46.999Z,69.22
2022-10-18T04:18:47.014Z,69.22
2022-10-18T04:19:46.981Z,69.22
2022-10-18T04:20:46.967Z,69.22
2022-10-18T04:21:46.959Z,69.22
2022-10-18T04:22:46.947Z,69.22
2022-10-18T04:23:46.976Z,69.22
2022-10-18T04:24:46.926Z,69.22
2022-10-18T04:25:46.919Z,69.22
2022-10-18T04:26:46.903Z,69.22
2022-10-18T04:27:46.895Z,69.22
2022-10-18T04:28:46.935Z,69.22
2022-10-18T04:29:46.898Z,69.22
2022-10-18T04:30:46.863Z,69.22
2022-10-18T04:31:46.854Z,69.22
2022-10-18T04:32:46.840Z,69.22
2022-10-18T04:33:46.834Z,69.22
2022-10-18T04:34:46.884Z,69.22
2022-10-18T04:35:46.813Z,69.22
2022-10-18T04:36:46.799Z,69.22
2022-10-18T04:37:46.792Z,69.22
2022-10-18T04:38:46.777Z,69.22
2022-10-18T04:39:49.900Z,69.22
2022-10-18T04:40:47.757Z,69.22
2022-10-18T04:41:46.749Z,69.22
2022-10-18T04:42:46.737Z,69.22
2022-10-18T04:43:46.731Z,69.22
2022-10-18T04:44:46.715Z,69.22
2022-10-18T04:45:46.732Z,69.22
2022-10-18T04:46:46.694Z,69.22
2022-10-18T04:47:46.683Z,69.22
2022-10-18T04:48:46.674Z,69.22
2022-10-18T04:49:46.664Z,69.22
2022-10-18T04:50:46.699Z,69.22
2022-10-18T04:51:46.643Z,69.22
2022-10-18T04:52:46.762Z,69.22
2022-10-18T04:53:46.620Z,69.22
2022-10-18T04:54:46.612Z,69.22
2022-10-18T04:55:46.630Z,69.22
2022-10-18T04:56:46.591Z,69.22
2022-10-18T04:57:46.577Z,69.22
2022-10-18T04:58:46.572Z,69.22
2022-10-18T04:59:46.556Z,69.22
2022-10-18T05:00:46.570Z,69.22
2022-10-18T05:01:46.700Z,69.22
2022-10-18T05:02:46.534Z,69.22
2022-10-18T05:03:46.517Z,69.22
2022-10-18T05:04:46.503Z,69.22
2022-10-18T05:06:02.756Z,69.22
2022-10-18T05:06:47.518Z,69.22
2022-10-18T05:07:46.472Z,69.22
2022-10-18T05:08:46.461Z,69.22
2022-10-18T05:09:46.453Z,69.22
2022-10-18T05:10:46.440Z,69.22
2022-10-18T05:11:46.459Z,69.22
2022-10-18T05:12:46.419Z,69.22
2022-10-18T05:13:48.626Z,69.22
2022-10-18T05:14:46.398Z,69.22
2022-10-18T05:15:46.391Z,69.22
2022-10-18T05:16:46.402Z,69.22
2022-10-18T05:17:46.369Z,69.22
2022-10-18T05:18:46.355Z,69.22
2022-10-18T05:19:46.346Z,69.22
2022-10-18T05:20:46.335Z,69.22
2022-10-18T05:21:46.367Z,69.22
2022-10-18T05:22:46.335Z,69.22
2022-10-18T05:23:46.309Z,69.22
2022-10-18T05:24:46.292Z,69.22
2022-10-18T05:25:46.285Z,69.22
2022-10-18T05:26:46.271Z,69.22
2022-10-18T05:27:46.288Z,69.22
2022-10-18T05:28:46.400Z,69.22
2022-10-18T05:29:46.242Z,69.22
2022-10-18T05:30:46.228Z,69.22
2022-10-18T05:31:46.218Z,69.22
2022-10-18T05:32:46.233Z,69.22
2022-10-18T05:33:46.205Z,69.22
2022-10-18T05:34:46.189Z,69.22
2022-10-18T05:35:46.179Z,69.22
2022-10-18T05:36:46.166Z,69.22
2022-10-18T05:37:46.182Z,69.22
2022-10-18T05:38:46.167Z,69.22
2022-10-18T05:39:46.136Z,69.22
2022-10-18T05:40:46.122Z,69.22
2022-10-18T05:41:46.115Z,69.22
2022-10-18T05:42:46.145Z,69.22
2022-10-18T05:43:46.095Z,69.22
2022-10-18T05:44:46.081Z,69.22
2022-10-18T05:45:46.072Z,69.22
2022-10-18T05:46:46.059Z,69.22
2022-10-18T05:47:46.051Z,69.22
2022-10-18T05:48:46.063Z,69.22
2022-10-18T05:49:46.028Z,69.22
2022-10-18T05:50:46.016Z,69.22
2022-10-18T05:51:46.007Z,69.22
2022-10-18T05:52:45.996Z,69.22
2022-10-18T05:53:46.015Z,69.22
2022-10-18T05:54:45.996Z,69.22
2022-10-18T05:55:45.965Z,69.22
2022-10-18T05:56:45.955Z,69.22
2022-10-18T05:57:45.944Z,69.22
2022-10-18T05:58:45.959Z,69.22
2022-10-18T05:59:45.924Z,69.22
2022-10-18T06:00:45.911Z,69.22
2022-10-18T06:01:45.901Z,69.22
2022-10-18T06:02:45.923Z,69.22
2022-10-18T06:03:45.908Z,69.22
2022-10-18T06:04:45.868Z,69.22
2022-10-18T06:05:45.875Z,69.22
2022-10-18T06:06:45.851Z,69.22
2022-10-18T06:07:45.837Z,69.22
2022-10-18T06:08:45.853Z,69.22
2022-10-18T06:09:45.816Z,69.22
2022-10-18T06:10:45.827Z,69.22
2022-10-18T06:11:45.800Z,69.22
2022-10-18T06:12:45.787Z,69.22
2022-10-18T06:13:45.804Z,69.22
2022-10-18T06:14:45.763Z,69.22
2022-10-18T06:15:45.754Z,69.22
2022-10-18T06:16:45.741Z,69.22
2022-10-18T06:17:45.735Z,69.22
2022-10-18T06:18:45.792Z,69.22
2022-10-18T06:19:45.710Z,69.22
2022-10-18T06:20:45.700Z,69.22
2022-10-18T06:21:45.689Z,69.22
2022-10-18T06:22:45.679Z,69.22
2022-10-18T06:23:45.671Z,69.22
2022-10-18T06:24:45.685Z,69.22
2022-10-18T06:25:45.651Z,69.22
2022-10-18T06:26:45.658Z,69.22
2022-10-18T06:27:45.626Z,69.22
2022-10-18T06:28:45.693Z,69.22
2022-10-18T06:29:45.630Z,69.22
2022-10-18T06:30:45.594Z,69.22
2022-10-18T06:31:45.583Z,69.22
2022-10-18T06:32:45.572Z,69.22
2022-10-18T06:33:45.563Z,69.22
2022-10-18T06:34:45.581Z,69.22
2022-10-18T06:35:45.544Z,69.22
2022-10-18T06:36:45.531Z,69.22
2022-10-18T06:37:45.525Z,69.22
2022-10-18T06:38:45.511Z,69.22
2022-10-18T06:39:45.528Z,69.22
2022-10-18T06:40:45.488Z,69.22
2022-10-18T06:41:45.479Z,69.22
2022-10-18T06:42:55.112Z,69.32
2022-10-18T06:43:46.458Z,69.32
2022-10-18T06:44:45.471Z,69.32
2022-10-18T06:45:45.438Z,69.32
2022-10-18T06:46:45.425Z,69.62
2022-10-18T06:47:45.417Z,69.72
2022-10-18T06:48:45.403Z,69.72
2022-10-18T06:49:45.422Z,69.72
2022-10-18T06:50:45.384Z,69.62
2022-10-18T06:51:45.372Z,69.52
2022-10-18T06:52:45.362Z,69.42
2022-10-18T06:53:59.282Z,69.32
2022-10-18T06:54:46.364Z,69.42
2022-10-18T06:55:45.332Z,69.42
2022-10-18T06:56:45.343Z,69.52
2022-10-18T06:57:45.311Z,69.82
2022-10-18T06:58:45.401Z,69.72
2022-10-18T06:59:45.330Z,69.49
2022-10-18T07:00:45.291Z,69.49
2022-10-18T07:01:45.331Z,69.49
2022-10-18T07:02:45.256Z,69.49
2022-10-18T07:03:45.248Z,69.59
2022-10-18T07:04:45.235Z,69.59
2022-10-18T07:05:45.254Z,69.59
2022-10-18T07:06:45.214Z,69.69
2022-10-18T07:07:45.203Z,69.69
2022-10-18T07:08:45.197Z,69.79
2022-10-18T07:09:45.184Z,69.79
2022-10-18T07:10:45.199Z,69.89
2022-10-18T07:11:45.162Z,69.99
2022-10-18T07:12:45.155Z,69.89
2022-10-18T07:13:45.141Z,69.99
2022-10-18T07:14:45.159Z,69.99
2022-10-18T07:15:45.164Z,69.99
2022-10-18T07:16:45.108Z,69.99
2022-10-18T07:17:45.101Z,70.09
2022-10-18T07:18:45.089Z,70.09
2022-10-18T07:19:45.079Z,70.09
2022-10-18T07:20:45.065Z,70.09
2022-10-18T07:21:45.082Z,70.09
2022-10-18T07:22:45.044Z,70.09
2022-10-18T07:23:45.037Z,70.09
2022-10-18T07:24:45.023Z,69.69
2022-10-18T07:25:45.023Z,69.59
2022-10-18T07:26:45.029Z,69.59
2022-10-18T07:27:44.996Z,69.59
2022-10-18T07:28:45.108Z,69.59
2022-10-18T07:29:44.974Z,69.69
2022-10-18T07:30:44.985Z,69.79
2022-10-18T07:31:44.975Z,69.89
2022-10-18T07:32:44.938Z,69.99
2022-10-18T07:33:44.933Z,69.99
2022-10-18T07:34:44.918Z,70.09
2022-10-18T07:35:44.914Z,70.09
2022-10-18T07:36:44.944Z,70.09
2022-10-18T07:37:44.886Z,70.09
2022-10-18T07:38:44.910Z,70.09
2022-10-18T07:39:44.874Z,70.09
2022-10-18T07:40:44.864Z,70.09
2022-10-18T07:41:44.873Z,70.09
2022-10-18T07:42:44.864Z,70.09
2022-10-18T07:43:44.828Z,70.09
2022-10-18T07:44:44.815Z,70.09
2022-10-18T07:45:44.803Z,70.09
2022-10-18T07:46:44.817Z,70.09
2022-10-18T07:47:44.808Z,70.09
2022-10-18T07:48:44.772Z,69.99
2022-10-18T07:49:44.760Z,69.99
2022-10-18T07:50:44.752Z,69.99
2022-10-18T07:51:44.740Z,70.09
2022-10-18T07:52:44.755Z,70.09
2022-10-18T07:53:44.719Z,70.09
2022-10-18T07:54:44.752Z,69.99
2022-10-18T07:55:44.707Z,70.09
2022-10-18T07:56:44.687Z,70.09
2022-10-18T07:57:44.704Z,69.99
2022-10-18T07:58:44.668Z,69.89
2022-10-18T07:59:44.654Z,69.79
2022-10-18T08:00:44.645Z,69.89
2022-10-18T08:01:44.655Z,69.99
2022-10-18T08:02:44.744Z,69.79
2022-10-18T08:03:44.642Z,69.89
2022-10-18T08:04:44.607Z,69.89
2022-10-18T08:05:44.593Z,69.89
2022-10-18T08:06:44.583Z,69.79
2022-10-18T08:07:44.569Z,69.89
2022-10-18T08:08:44.587Z,69.89
2022-10-18T08:09:44.551Z,69.79
2022-10-18T08:10:44.539Z,69.79
2022-10-18T08:11:44.528Z,69.79
2022-10-18T08:12:44.519Z,69.79
2022-10-18T08:13:44.598Z,69.79
2022-10-18T08:14:44.500Z,69.79
2022-10-18T08:15:44.486Z,69.79
2022-10-18T08:16:44.475Z,69.79
2022-10-18T08:17:44.467Z,69.79
2022-10-18T08:18:44.504Z,69.79
2022-10-18T08:19:52.905Z,69.79
2022-10-18T08:20:45.436Z,69.79
2022-10-18T08:21:44.423Z,69.79
2022-10-18T08:22:44.416Z,69.79
2022-10-18T08:23:44.428Z,69.79
2022-10-18T08:24:44.394Z,69.89
2022-10-18T08:25:44.382Z,69.89
2022-10-18T08:26:44.374Z,69.89
2022-10-18T08:27:44.362Z,69.89
2022-10-18T08:28:53.619Z,69.89
2022-10-18T08:29:45.486Z,69.89
2022-10-18T08:30:44.331Z,69.89
2022-10-18T08:31:44.317Z,69.89
2022-10-18T08:32:44.310Z,69.89
2022-10-18T08:33:44.339Z,69.79
2022-10-18T08:34:44.313Z,69.79
2022-10-18T08:35:44.274Z,69.89
2022-10-18T08:36:44.266Z,69.89
2022-10-18T08:37:44.254Z,69.79
2022-10-18T08:38:44.249Z,69.79
2022-10-18T08:39:44.260Z,69.79
2022-10-18T08:40:44.224Z,69.79
2022-10-18T08:41:44.211Z,70.09
2022-10-18T08:42:44.204Z,70.19
2022-10-18T08:43:44.190Z,70.59
2022-10-18T08:44:44.206Z,70.70
2022-10-18T08:45:44.186Z,70.59
2022-10-18T08:46:44.167Z,70.59
2022-10-18T08:47:44.150Z,70.39
2022-10-18T08:48:44.140Z,70.29
2022-10-18T08:49:46.844Z,70.39
2022-10-18T08:50:44.145Z,70.39
2022-10-18T08:51:44.107Z,70.29
2022-10-18T08:52:44.100Z,70.29
2022-10-18T08:53:44.084Z,70.29
2022-10-18T08:54:44.105Z,70.29
2022-10-18T08:55:44.068Z,70.19
2022-10-18T08:56:44.055Z,70.29
2022-10-18T08:57:44.055Z,70.29
2022-10-18T08:58:44.034Z,70.29
2022-10-18T08:59:44.047Z,70.29
2022-10-18T09:00:44.011Z,70.39
2022-10-18T09:01:44.100Z,70.39
2022-10-18T09:02:43.991Z,70.29
2022-10-18T09:03:44.062Z,70.29
2022-10-18T09:04:44.010Z,70.39
2022-10-18T09:05:43.965Z,70.39
2022-10-18T09:06:43.975Z,70.39
2022-10-18T09:07:44.003Z,70.50
2022-10-18T09:08:43.952Z,70.50
2022-10-18T09:09:43.916Z,70.50
2022-10-18T09:10:43.947Z,70.50
2022-10-18T09:11:43.894Z,70.50
2022-10-18T09:12:43.888Z,70.50
2022-10-18T09:13:43.902Z,70.50
2022-10-18T09:14:44.140Z,70.39
2022-10-18T09:15:43.852Z,70.39
2022-10-18T09:16:43.929Z,70.50
2022-10-18T09:17:43.851Z,70.50
2022-10-18T09:18:43.826Z,70.50
2022-10-18T09:19:43.849Z,70.50
2022-10-18T09:20:43.800Z,70.39
2022-10-18T09:21:43.828Z,70.39
2022-10-18T09:22:43.801Z,70.39
2022-10-18T09:23:43.768Z,70.39
2022-10-18T09:24:43.759Z,70.50
2022-10-18T09:25:43.746Z,70.50
2022-10-18T09:26:43.808Z,70.50
2022-10-18T09:27:43.764Z,70.50
2022-10-18T09:28:43.782Z,70.50
2022-10-18T09:29:43.704Z,70.50
2022-10-18T09:30:43.699Z,70.50
2022-10-18T09:31:43.684Z,70.39
2022-10-18T09:32:43.678Z,70.50
2022-10-18T09:33:43.688Z,70.50
2022-10-18T09:34:43.651Z,70.29
2022-10-18T09:35:43.640Z,70.29
2022-10-18T09:36:43.630Z,70.39
2022-10-18T09:37:43.619Z,70.39
2022-10-18T09:38:43.743Z,70.39
2022-10-18T09:39:43.597Z,70.50
2022-10-18T09:40:43.590Z,70.39
2022-10-18T09:41:43.587Z,70.39
2022-10-18T09:42:43.567Z,70.29
2022-10-18T09:43:43.601Z,70.29
2022-10-18T09:44:43.545Z,70.29
2022-10-18T09:45:43.535Z,70.29
2022-10-18T09:46:43.523Z,70.39
2022-10-18T09:47:43.519Z,70.39
2022-10-18T09:48:43.503Z,70.39
2022-10-18T09:49:43.520Z,70.50
2022-10-18T09:50:43.482Z,70.59
2022-10-18T09:51:43.472Z,70.50
2022-10-18T09:52:43.464Z,70.50
2022-10-18T09:53:43.450Z,70.50
2022-10-18T09:54:43.491Z,70.50
2022-10-18T09:55:43.435Z,70.50
2022-10-18T09:56:43.472Z,70.50
2022-10-18T09:57:43.412Z,70.50
2022-10-18T09:58:43.398Z,70.59
2022-10-18T09:59:43.417Z,70.70
2022-10-18T10:00:43.378Z,70.70
2022-10-18T10:01:43.371Z,70.79
2022-10-18T10:02:43.407Z,70.79
2022-10-18T10:03:43.359Z,71.09
2022-10-18T10:04:43.359Z,71.20
2022-10-18T10:05:43.329Z,71.40
2022-10-18T10:06:43.314Z,71.60
2022-10-18T10:07:43.305Z,71.60
2022-10-18T10:08:43.295Z,71.60
2022-10-18T10:09:43.312Z,71.60
2022-10-18T10:10:43.294Z,71.50
2022-10-18T10:11:43.267Z,71.60
2022-10-18T10:12:43.250Z,71.70
2022-10-18T10:13:43.241Z,71.70
2022-10-18T10:14:43.274Z,71.80
2022-10-18T10:15:43.219Z,71.80
2022-10-18T10:16:43.209Z,71.80
2022-10-18T10:17:43.197Z,71.70
2022-10-18T10:18:43.186Z,71.80
2022-10-18T10:19:43.177Z,71.70
2022-10-18T10:20:43.193Z,71.80
2022-10-18T10:21:43.155Z,71.80
2022-10-18T10:22:43.144Z,71.80
2022-10-18T10:23:43.134Z,71.70
2022-10-18T10:24:43.121Z,71.50
2022-10-18T10:25:43.138Z,71.60
2022-10-18T10:26:43.123Z,71.50
2022-10-18T10:27:43.095Z,71.60
2022-10-18T10:28:43.144Z,71.60
2022-10-18T10:29:44.891Z,71.60
2022-10-18T10:30:43.084Z,71.60
2022-10-18T10:31:43.059Z,71.40
2022-10-18T10:32:43.038Z,71.40
2022-10-18T10:33:43.030Z,71.50
2022-10-18T10:34:44.837Z,71.50
2022-10-18T10:35:53.403Z,71.40
2022-10-18T10:36:43.997Z,71.40
2022-10-18T10:37:42.987Z,71.40
2022-10-18T10:38:42.977Z,71.40
2022-10-18T10:39:51.232Z,71.40
2022-10-18T10:40:43.991Z,71.50
2022-10-18T10:41:42.946Z,71.50
2022-10-18T10:42:43.036Z,71.60
2022-10-18T10:43:42.936Z,71.50
2022-10-18T10:44:42.912Z,71.40
2022-10-18T10:45:42.901Z,71.47
2022-10-18T10:46:43.504Z,71.50
2022-10-18T10:47:42.882Z,71.40
2022-10-18T10:48:42.867Z,71.36
2022-10-18T10:49:42.862Z,71.40
2022-10-18T10:50:42.848Z,71.40
2022-10-18T10:51:42.869Z,71.26
2022-10-18T10:52:43.092Z,71.26
2022-10-18T10:53:42.817Z,71.36
2022-10-18T10:54:44.684Z,71.26
2022-10-18T10:55:42.796Z,71.06
2022-10-18T10:56:42.809Z,71.06
2022-10-18T10:57:42.778Z,71.16
2022-10-18T10:58:42.786Z,71.16
2022-10-18T10:59:42.758Z,71.16
2022-10-18T11:00:42.750Z,71.16
2022-10-18T11:01:42.758Z,71.16
2022-10-18T11:02:51.140Z,71.16
2022-10-18T11:03:43.734Z,71.16
2022-10-18T11:04:42.700Z,71.16
2022-10-18T11:05:42.692Z,71.16
2022-10-18T11:06:42.720Z,71.16
2022-10-18T11:07:42.669Z,71.16
2022-10-18T11:08:42.668Z,71.26
2022-10-18T11:09:42.651Z,71.36
2022-10-18T11:10:42.636Z,71.26
2022-10-18T11:11:42.632Z,71.26
2022-10-18T11:12:42.640Z,71.26
2022-10-18T11:13:42.606Z,71.16
2022-10-18T11:14:42.619Z,71.26
2022-10-18T11:15:42.584Z,71.26
2022-10-18T11:16:42.571Z,71.16
2022-10-18T11:17:42.655Z,71.26
2022-10-18T11:18:42.550Z,71.26
2022-10-18T11:19:42.543Z,71.36
2022-10-18T11:20:42.530Z,71.26
2022-10-18T11:21:42.522Z,71.36
2022-10-18T11:22:42.532Z,71.36
2022-10-18T11:23:42.501Z,71.26
2022-10-18T11:24:42.487Z,71.26
2022-10-18T11:25:42.480Z,71.26
2022-10-18T11:26:43.749Z,71.26
2022-10-18T11:27:42.493Z,71.36
2022-10-18T11:28:42.570Z,71.26
2022-10-18T11:29:42.436Z,71.36
2022-10-18T11:30:42.447Z,71.26
2022-10-18T11:31:42.418Z,71.26
2022-10-18T11:32:42.400Z,71.16
2022-10-18T11:34:06.986Z,71.26
2022-10-18T11:34:43.378Z,71.26
2022-10-18T11:35:42.372Z,71.26
2022-10-18T11:36:49.400Z,71.36
2022-10-18T11:37:43.588Z,71.36
2022-10-18T11:38:42.362Z,71.36
2022-10-18T11:39:42.331Z,71.36
2022-10-18T11:40:42.321Z,71.36
2022-10-18T11:41:42.309Z,71.36
2022-10-18T11:42:42.295Z,71.47
2022-10-18T11:44:01.091Z,71.36
2022-10-18T11:44:43.272Z,71.36
2022-10-18T11:45:42.264Z,71.36
2022-10-18T11:46:42.277Z,71.36
2022-10-18T11:47:42.243Z,71.36
2022-10-18T11:48:42.258Z,71.36
2022-10-18T11:49:42.224Z,71.47
2022-10-18T11:50:42.211Z,71.36
2022-10-18T11:51:56.296Z,71.36
2022-10-18T11:52:43.199Z,71.26
2022-10-18T11:53:42.181Z,71.36
2022-10-18T11:54:42.193Z,71.36
2022-10-18T11:55:42.161Z,71.36
2022-10-18T11:56:42.148Z,71.36
2022-10-18T11:57:42.160Z,71.36
2022-10-18T11:58:42.125Z,71.36
2022-10-18T11:59:42.113Z,71.26
2022-10-18T12:00:42.106Z,71.36
2022-10-18T12:01:42.093Z,71.26
2022-10-18T12:02:42.215Z,71.26
2022-10-18T12:03:42.072Z,71.26
2022-10-18T12:04:53.147Z,71.26
2022-10-18T12:05:43.050Z,71.26
2022-10-18T12:06:42.043Z,71.26
2022-10-18T12:07:42.032Z,71.26
2022-10-18T12:08:42.049Z,71.26
2022-10-18T12:09:42.049Z,71.26
2022-10-18T12:10:53.106Z,71.26
2022-10-18T12:11:46.844Z,71.16
2022-10-18T12:12:41.987Z,71.16
2022-10-18T12:13:41.992Z,71.16
2022-10-18T12:14:41.957Z,71.16
2022-10-18T12:15:41.944Z,71.16
2022-10-18T12:17:20.383Z,71.06
2022-10-18T12:17:48.874Z,71.06
2022-10-18T12:18:43.035Z,71.06
2022-10-18T12:19:41.901Z,71.06
2022-10-18T12:20:41.894Z,71.06
2022-10-18T12:21:41.881Z,71.06
2022-10-18T12:22:41.868Z,71.06
2022-10-18T12:23:41.885Z,70.96
2022-10-18T12:24:41.850Z,70.96
2022-10-18T12:25:41.836Z,70.96
2022-10-18T12:26:41.827Z,70.96
2022-10-18T12:27:41.856Z,71.06
2022-10-18T12:28:41.853Z,71.16
2022-10-18T12:29:44.279Z,71.16
2022-10-18T12:30:41.787Z,70.96
2022-10-18T12:31:41.774Z,71.06
2022-10-18T12:32:51.615Z,71.16
2022-10-18T12:33:42.779Z,71.16
2022-10-18T12:34:41.765Z,71.06
2022-10-18T12:35:41.732Z,71.16
2022-10-18T12:36:41.722Z,71.06
2022-10-18T12:37:41.709Z,71.06
2022-10-18T12:38:41.732Z,70.96
2022-10-18T12:39:45.101Z,71.06
2022-10-18T12:40:42.677Z,71.06
2022-10-18T12:41:41.667Z,71.16
2022-10-18T12:42:41.659Z,71.06
2022-10-18T12:43:41.671Z,71.06
2022-10-18T12:44:41.638Z,71.06
2022-10-18T12:45:41.624Z,71.06
2022-10-18T12:46:41.616Z,71.06
2022-10-18T12:47:41.603Z,71.06
2022-10-18T12:48:41.620Z,71.16
2022-10-18T12:49:44.003Z,71.06
2022-10-18T12:50:41.600Z,71.06
2022-10-18T12:51:41.565Z,70.96
2022-10-18T12:52:41.554Z,70.86
2022-10-18T12:53:41.580Z,70.96